Time;durP1;ratioP1;P1;durP2;ratioP2;P2;SDS_P1;SDS_P2;PMS_P1;PMS_P2;Temp;Humidity;BMP_temperature;BMP_pressure;BME280_temperature;BME280_humidity;BME280_pressure;Samples;Min_cycle;Max_cycle;Signal;HPM_P1;HPM_P2
2021/05/13 00:00:41;;;;;;;16.83;8.65;;;10.20;90.10;;;;;;5030457;28;20053;-86
2021/05/13 00:03:07;;;;;;;18.15;8.98;;;10.00;90.20;;;;;;5031324;28;20493;-88
2021/05/13 00:05:33;;;;;;;16.90;8.48;;;10.00;90.20;;;;;;5047141;28;20476;-87
2021/05/13 00:07:59;;;;;;;17.95;7.97;;;9.90;90.30;;;;;;5046180;28;20057;-86
2021/05/13 00:10:26;;;;;;;14.23;9.10;;;9.90;90.50;;;;;;5036818;28;20054;-87
2021/05/13 00:12:57;;;;;;;17.50;9.15;;;9.90;90.50;;;;;;5035158;28;20409;-86
2021/05/13 00:15:26;;;;;;;14.70;8.38;;;9.90;90.40;;;;;;5031349;28;20075;-87
2021/05/13 00:17:53;;;;;;;16.83;8.20;;;9.90;90.40;;;;;;5034981;28;20085;-86
2021/05/13 00:20:23;;;;;;;17.20;8.80;;;9.90;90.40;;;;;;5040020;28;20456;-89
2021/05/13 00:22:49;;;;;;;15.57;8.63;;;9.80;90.70;;;;;;5033600;28;20453;-87
2021/05/13 00:25:16;;;;;;;18.58;9.13;;;9.70;90.90;;;;;;5048840;28;20126;-86
2021/05/13 00:27:42;;;;;;;16.13;9.25;;;9.80;90.60;;;;;;5041751;28;20510;-85
2021/05/13 00:30:08;;;;;;;18.50;9.35;;;9.80;90.70;;;;;;5035250;28;20045;-87
2021/05/13 00:32:36;;;;;;;15.07;7.95;;;9.80;90.80;;;;;;5051531;28;20050;-86
2021/05/13 00:35:08;;;;;;;16.63;8.10;;;9.80;90.50;;;;;;5033018;28;20534;-86
2021/05/13 00:37:33;;;;;;;17.25;8.43;;;9.80;90.20;;;;;;5048028;28;20069;-87
2021/05/13 00:39:59;;;;;;;15.75;8.27;;;9.80;90.20;;;;;;5030983;28;20123;-86
2021/05/13 00:42:25;;;;;;;15.55;8.27;;;9.90;90.20;;;;;;5035740;28;20068;-86
2021/05/13 00:44:55;;;;;;;19.38;9.15;;;9.90;90.40;;;;;;5028819;28;20061;-86
2021/05/13 00:47:23;;;;;;;17.40;8.73;;;10.00;90.80;;;;;;5047786;28;20045;-89
2021/05/13 00:49:49;;;;;;;19.98;8.93;;;10.10;90.70;;;;;;5033587;28;20060;-87
2021/05/13 00:52:21;;;;;;;19.45;8.77;;;10.10;90.70;;;;;;5035284;28;20444;-86
2021/05/13 00:54:47;;;;;;;19.10;9.10;;;10.10;91.10;;;;;;5034335;28;20048;-86
2021/05/13 00:57:14;;;;;;;23.67;9.68;;;10.20;91.00;;;;;;5031468;28;20153;-86
2021/05/13 00:59:44;;;;;;;23.08;10.20;;;10.20;91.00;;;;;;5036423;28;20156;-86
2021/05/13 01:02:10;;;;;;;20.10;8.90;;;10.20;91.00;;;;;;5035786;28;20409;-86
2021/05/13 01:04:36;;;;;;;20.38;9.68;;;10.30;91.00;;;;;;5047390;28;20052;-86
2021/05/13 01:07:03;;;;;;;19.40;9.25;;;10.20;91.10;;;;;;5047078;28;20053;-86
2021/05/13 01:09:32;;;;;;;20.15;9.95;;;10.20;91.20;;;;;;5042690;28;20048;-86
2021/05/13 01:14:53;;;;;;;17.38;10.20;;;10.20;91.30;;;;;;5036917;28;20072;-87
2021/05/13 01:17:26;;;;;;;16.10;10.27;;;10.10;91.30;;;;;;5061168;28;20079;-87
2021/05/13 01:19:54;;;;;;;16.77;9.55;;;10.10;91.40;;;;;;5038272;28;20053;-86
2021/05/13 01:22:23;;;;;;;15.07;9.35;;;10.10;91.50;;;;;;5012307;28;20049;-86
2021/05/13 01:24:49;;;;;;;18.13;9.82;;;10.10;91.50;;;;;;5061364;28;20051;-87
2021/05/13 01:27:17;;;;;;;18.08;10.57;;;10.10;91.50;;;;;;5043495;28;20084;-86
2021/05/13 01:29:49;;;;;;;15.60;10.50;;;10.10;91.60;;;;;;5033426;28;20113;-86
2021/05/13 01:32:16;;;;;;;13.73;9.32;;;10.10;91.60;;;;;;5050382;28;20551;-87
2021/05/13 01:34:43;;;;;;;18.90;11.18;;;10.20;91.50;;;;;;5037737;28;20550;-86
2021/05/13 01:37:09;;;;;;;21.95;10.60;;;10.20;91.50;;;;;;5032279;28;20056;-87
2021/05/13 01:39:35;;;;;;;18.55;9.85;;;10.20;91.80;;;;;;5050122;28;20725;-84
2021/05/13 01:42:01;;;;;;;15.80;8.70;;;10.20;91.60;;;;;;5037529;28;20099;-86
2021/05/13 01:44:27;;;;;;;16.27;8.45;;;10.20;91.50;;;;;;5052859;28;20137;-87
2021/05/13 01:46:52;;;;;;;18.83;8.75;;;10.20;91.50;;;;;;5031566;28;20064;-87
2021/05/13 01:49:22;;;;;;;16.10;8.07;;;10.20;91.40;;;;;;5034799;28;20064;-86
2021/05/13 01:51:48;;;;;;;18.58;8.65;;;10.30;91.40;;;;;;5051241;28;20485;-86
2021/05/13 01:54:18;;;;;;;19.00;8.30;;;10.20;91.30;;;;;;5033094;28;20045;-87
2021/05/13 01:56:44;;;;;;;14.40;8.10;;;10.10;91.40;;;;;;5029110;28;20049;-87
2021/05/13 01:59:10;;;;;;;17.42;8.00;;;10.10;91.50;;;;;;5034154;28;20045;-86
2021/05/13 02:01:36;;;;;;;15.32;8.13;;;10.10;91.70;;;;;;5050918;28;20068;-85
2021/05/13 02:04:02;;;;;;;14.27;7.85;;;10.10;91.60;;;;;;5046959;28;20049;-87
2021/05/13 02:06:28;;;;;;;15.13;9.07;;;10.10;91.60;;;;;;5034590;28;20060;-86
2021/05/13 02:08:54;;;;;;;16.70;8.90;;;10.10;91.60;;;;;;5030043;28;20049;-86
2021/05/13 02:11:20;;;;;;;18.33;7.88;;;10.10;91.70;;;;;;5031608;28;20057;-86
2021/05/13 02:13:46;;;;;;;18.08;9.82;;;10.00;91.80;;;;;;5024186;28;20053;-86
2021/05/13 02:16:12;;;;;;;21.20;10.05;;;9.90;91.80;;;;;;5033147;28;20153;-86
2021/05/13 02:18:39;;;;;;;22.08;10.65;;;9.90;92.00;;;;;;5035670;28;20120;-87
2021/05/13 02:21:05;;;;;;;17.77;10.27;;;9.80;92.00;;;;;;5029704;28;20048;-83
2021/05/13 02:23:31;;;;;;;17.20;9.25;;;9.80;92.20;;;;;;5025864;28;20072;-86
2021/05/13 02:25:59;;;;;;;20.50;9.30;;;9.80;92.30;;;;;;5026259;28;20157;-87
2021/05/13 02:28:25;;;;;;;21.80;9.05;;;9.70;92.30;;;;;;5020486;28;20068;-88
2021/05/13 02:30:51;;;;;;;19.48;8.38;;;9.70;92.40;;;;;;5042187;28;20084;-86
2021/05/13 02:33:17;;;;;;;16.33;9.30;;;9.80;92.40;;;;;;5058271;28;20127;-86
2021/05/13 02:35:43;;;;;;;16.83;9.40;;;9.80;92.50;;;;;;5029858;28;20041;-86
2021/05/13 02:38:09;;;;;;;24.30;9.75;;;9.80;92.50;;;;;;5033094;28;20088;-87
2021/05/13 02:40:35;;;;;;;21.05;9.48;;;9.70;92.50;;;;;;5035777;28;20179;-83
2021/05/13 02:43:03;;;;;;;18.60;8.88;;;9.70;92.60;;;;;;5031072;28;20504;-87
2021/05/13 02:45:29;;;;;;;16.20;8.77;;;9.70;92.60;;;;;;5030126;28;20049;-87
2021/05/13 02:47:58;;;;;;;16.13;8.18;;;9.70;92.80;;;;;;5036823;28;20405;-86
2021/05/13 02:50:24;;;;;;;19.77;9.15;;;9.80;93.00;;;;;;5047526;28;20044;-88
2021/05/13 02:52:50;;;;;;;20.63;9.30;;;9.80;92.60;;;;;;5046602;28;20382;-86
2021/05/13 02:55:16;;;;;;;19.52;9.50;;;9.90;92.60;;;;;;5051215;28;20048;-86
2021/05/13 02:57:42;;;;;;;15.23;8.75;;;9.90;92.70;;;;;;5050757;28;20041;-87
2021/05/13 03:02:51;;;;;;;23.35;12.20;;;9.70;92.70;;;;;;5045095;28;20045;-86
2021/05/13 03:05:18;;;;;;;18.23;9.13;;;9.70;92.80;;;;;;5038325;28;20448;-86
2021/05/13 03:07:48;;;;;;;18.38;11.30;;;9.60;92.90;;;;;;5031680;28;20046;-86
2021/05/13 03:10:19;;;;;;;19.52;11.13;;;9.60;92.80;;;;;;5046242;28;20049;-86
2021/05/13 03:12:47;;;;;;;18.10;11.07;;;9.60;92.80;;;;;;5055019;28;20114;-85
2021/05/13 03:15:13;;;;;;;23.15;10.40;;;9.60;92.90;;;;;;5042584;28;20049;-86
2021/05/13 03:17:39;;;;;;;22.25;12.00;;;9.70;92.90;;;;;;5027489;28;20574;-87
2021/05/13 03:20:06;;;;;;;19.75;12.15;;;9.60;92.90;;;;;;5033035;28;20042;-85
2021/05/13 03:22:32;;;;;;;19.77;10.63;;;9.50;92.90;;;;;;5029306;28;20115;-86
2021/05/13 03:25:02;;;;;;;17.50;10.05;;;9.50;93.00;;;;;;5035400;28;20500;-86
2021/05/13 03:27:42;;;;;;;18.17;9.10;;;9.50;93.10;;;;;;5049544;28;20050;-88
2021/05/13 03:30:09;;;;;;;18.88;9.45;;;9.50;93.10;;;;;;5034446;28;20049;-86
2021/05/13 03:32:35;;;;;;;17.83;10.25;;;9.50;93.10;;;;;;5038405;28;20075;-84
2021/05/13 03:35:01;;;;;;;18.17;10.23;;;9.50;93.10;;;;;;5037669;28;20080;-86
2021/05/13 03:37:28;;;;;;;16.38;10.15;;;9.50;93.10;;;;;;5049070;28;20198;-89
2021/05/13 03:39:55;;;;;;;18.58;9.80;;;9.40;93.20;;;;;;5048401;28;20382;-86
2021/05/13 03:42:21;;;;;;;13.38;8.00;;;9.40;93.30;;;;;;5052343;28;20041;-86
2021/05/13 03:44:48;;;;;;;15.90;8.70;;;9.40;93.30;;;;;;5049617;28;20045;-86
2021/05/13 03:47:14;;;;;;;13.25;8.05;;;9.30;93.30;;;;;;5035992;28;20049;-86
2021/05/13 03:49:40;;;;;;;12.00;8.43;;;9.20;93.50;;;;;;5036642;28;20128;-87
2021/05/13 03:52:06;;;;;;;15.30;8.85;;;9.20;93.50;;;;;;5031194;28;20049;-86
2021/05/13 03:54:32;;;;;;;14.48;8.13;;;9.20;93.60;;;;;;5037077;28;20130;-86
2021/05/13 03:57:07;;;;;;;16.67;8.38;;;9.20;93.60;;;;;;5040109;28;20060;-85
2021/05/13 03:59:37;;;;;;;14.38;8.93;;;9.10;93.60;;;;;;5050340;28;20045;-87
2021/05/13 04:04:36;;;;;;;16.90;10.70;;;9.10;93.60;;;;;;5036055;28;20132;-84
2021/05/13 04:07:03;;;;;;;20.30;10.05;;;9.00;93.70;;;;;;5052039;28;20053;-86
2021/05/13 04:09:30;;;;;;;21.25;9.82;;;9.00;93.70;;;;;;5042923;28;20045;-89
2021/05/13 04:11:56;;;;;;;19.88;9.90;;;8.90;93.80;;;;;;5033442;28;20053;-86
2021/05/13 04:14:23;;;;;;;21.35;10.35;;;8.90;93.90;;;;;;5036357;28;20481;-85
2021/05/13 04:16:56;;;;;;;20.13;9.75;;;8.90;93.90;;;;;;5063775;28;20052;-86
2021/05/13 04:19:22;;;;;;;16.88;10.23;;;8.90;94.00;;;;;;5049048;28;20493;-86
2021/05/13 04:21:49;;;;;;;22.17;12.73;;;8.90;94.00;;;;;;5036537;28;20498;-87
2021/05/13 04:24:18;;;;;;;24.13;13.18;;;8.90;94.10;;;;;;5035002;28;20124;-87
2021/05/13 04:26:44;;;;;;;21.65;12.48;;;9.00;93.90;;;;;;5045928;28;20493;-87
2021/05/13 04:29:10;;;;;;;22.52;11.35;;;9.00;93.90;;;;;;5040426;28;20049;-86
2021/05/13 04:31:36;;;;;;;18.08;11.10;;;9.00;93.80;;;;;;5031831;28;20111;-86
2021/05/13 04:34:06;;;;;;;22.35;10.43;;;9.00;94.10;;;;;;5035440;28;20049;-87
2021/05/13 04:36:32;;;;;;;21.45;10.65;;;9.00;93.90;;;;;;5053706;28;20068;-90
2021/05/13 04:38:58;;;;;;;24.55;13.70;;;9.00;93.90;;;;;;5042399;28;20045;-86
2021/05/13 04:41:25;;;;;;;21.23;11.80;;;9.00;93.90;;;;;;5059934;28;20052;-86
2021/05/13 04:43:51;;;;;;;18.48;9.95;;;9.00;94.00;;;;;;5062367;28;20292;-87
2021/05/13 04:46:18;;;;;;;20.70;10.18;;;9.00;94.00;;;;;;5043079;28;20609;-87
2021/05/13 04:51:16;;;;;;;19.85;9.48;;;9.10;94.20;;;;;;5031285;28;20056;-86
2021/05/13 04:53:43;;;;;;;18.50;9.80;;;9.20;94.30;;;;;;5036583;28;20504;-87
2021/05/13 04:56:09;;;;;;;22.83;9.95;;;9.20;93.90;;;;;;5041980;28;20131;-86
2021/05/13 04:58:36;;;;;;;19.65;9.60;;;9.30;93.90;;;;;;5031402;28;20168;-86
2021/05/13 05:01:01;;;;;;;18.48;9.20;;;9.30;93.90;;;;;;5044988;28;20045;-87
2021/05/13 05:03:32;;;;;;;18.20;10.05;;;9.40;94.00;;;;;;5048162;28;20378;-90
2021/05/13 05:05:58;;;;;;;21.02;11.13;;;9.50;94.00;;;;;;5050440;28;20071;-89
2021/05/13 05:08:24;;;;;;;21.25;12.05;;;9.60;93.90;;;;;;5035455;28;20465;-86
2021/05/13 05:10:51;;;;;;;18.50;10.32;;;9.60;93.70;;;;;;5057259;28;20052;-87
2021/05/13 05:13:16;;;;;;;19.52;10.13;;;9.70;93.70;;;;;;5045895;28;20069;-87
2021/05/13 05:15:42;;;;;;;20.05;10.13;;;9.70;93.80;;;;;;5032923;28;20075;-87
2021/05/13 05:18:08;;;;;;;18.25;9.38;;;9.70;93.70;;;;;;5041565;28;20045;-87
2021/05/13 05:20:34;;;;;;;20.25;9.20;;;9.80;93.70;;;;;;5037870;28;20051;-91
2021/05/13 05:23:00;;;;;;;23.35;9.13;;;9.80;93.60;;;;;;5029484;28;20124;-87
2021/05/13 05:25:27;;;;;;;20.50;9.25;;;9.80;93.60;;;;;;5032548;28;20046;-87
2021/05/13 05:27:53;;;;;;;21.95;9.27;;;9.90;93.60;;;;;;5035912;28;20053;-87
2021/05/13 05:30:18;;;;;;;19.65;9.77;;;9.90;93.60;;;;;;5046696;28;20049;-87
2021/05/13 05:32:44;;;;;;;18.98;9.77;;;9.90;93.50;;;;;;5046248;28;20045;-86
2021/05/13 05:35:10;;;;;;;20.08;10.00;;;10.00;93.50;;;;;;5038844;28;20049;-88
2021/05/13 05:37:39;;;;;;;19.15;9.80;;;10.00;93.40;;;;;;5035235;28;20072;-88
2021/05/13 05:40:05;;;;;;;19.23;9.68;;;10.10;93.40;;;;;;5044562;28;20061;-86
2021/05/13 05:42:32;;;;;;;20.23;10.77;;;10.10;93.30;;;;;;5033666;28;20062;-90
2021/05/13 05:44:59;;;;;;;19.60;10.02;;;10.10;93.20;;;;;;5019701;28;20496;-85
2021/05/13 05:47:27;;;;;;;18.35;9.73;;;10.10;93.20;;;;;;5027271;28;20062;-85
2021/05/13 05:49:54;;;;;;;19.25;10.55;;;10.20;93.20;;;;;;5022519;28;20663;-85
2021/05/13 05:52:20;;;;;;;21.80;9.68;;;10.20;93.20;;;;;;5020109;28;20053;-84
2021/05/13 05:54:46;;;;;;;16.85;9.40;;;10.30;93.20;;;;;;5044689;28;20132;-85
2021/05/13 05:57:12;;;;;;;17.55;8.88;;;10.40;93.10;;;;;;5047751;28;20132;-85
2021/05/13 05:59:39;;;;;;;15.63;8.70;;;10.50;93.20;;;;;;5037794;28;20429;-86
2021/05/13 06:02:05;;;;;;;16.20;9.40;;;10.60;93.10;;;;;;5033244;28;20101;-83
2021/05/13 06:04:34;;;;;;;15.00;8.90;;;10.70;92.90;;;;;;5029911;28;20046;-90
2021/05/13 06:07:01;;;;;;;16.58;8.88;;;10.70;92.90;;;;;;5061587;28;20048;-84
2021/05/13 06:09:28;;;;;;;13.90;8.50;;;10.80;92.90;;;;;;5061504;28;20484;-84
2021/05/13 06:11:55;;;;;;;12.35;8.05;;;10.80;92.70;;;;;;5046587;28;20654;-84
2021/05/13 06:14:21;;;;;;;14.02;7.65;;;10.90;92.60;;;;;;5047307;28;20056;-85
2021/05/13 06:16:48;;;;;;;12.65;7.68;;;10.90;92.40;;;;;;5038533;28;20072;-84
2021/05/13 06:19:14;;;;;;;16.13;8.13;;;11.00;92.20;;;;;;5035776;28;20489;-85
2021/05/13 06:21:40;;;;;;;12.57;7.60;;;11.10;92.10;;;;;;5058139;28;20086;-86
2021/05/13 06:24:11;;;;;;;15.25;7.45;;;11.20;92.10;;;;;;5054165;28;20388;-84
2021/05/13 06:26:39;;;;;;;13.50;7.47;;;11.30;91.90;;;;;;5044624;28;20037;-84
2021/05/13 06:29:07;;;;;;;15.90;8.18;;;11.40;91.70;;;;;;5028549;28;20485;-84
2021/05/13 06:31:33;;;;;;;15.70;7.47;;;11.50;91.60;;;;;;5049659;28;20409;-84
2021/05/13 06:33:59;;;;;;;14.75;7.80;;;11.60;91.40;;;;;;5026456;28;20045;-84
2021/05/13 06:36:25;;;;;;;15.10;8.02;;;11.70;91.10;;;;;;5030225;28;20099;-85
2021/05/13 06:38:51;;;;;;;14.60;7.85;;;11.70;90.80;;;;;;5041938;28;20124;-84
2021/05/13 06:41:17;;;;;;;14.38;8.20;;;11.80;90.90;;;;;;5042249;28;20128;-85
2021/05/13 06:43:49;;;;;;;15.45;7.93;;;11.90;90.60;;;;;;5017577;28;20149;-84
2021/05/13 06:46:14;;;;;;;15.32;6.90;;;11.90;91.00;;;;;;5055135;28;20496;-86
2021/05/13 06:48:40;;;;;;;15.10;7.22;;;12.00;90.40;;;;;;5042865;28;20056;-85
2021/05/13 06:51:06;;;;;;;13.55;6.55;;;12.10;90.00;;;;;;5046185;28;20046;-84
2021/05/13 06:53:35;;;;;;;9.60;6.32;;;12.20;87.90;;;;;;5029673;28;20080;-89
2021/05/13 06:56:01;;;;;;;11.68;5.80;;;12.20;87.70;;;;;;5036582;28;20046;-85
2021/05/13 06:58:28;;;;;;;12.85;6.85;;;12.20;87.00;;;;;;5033538;28;20037;-84
2021/05/13 07:00:54;;;;;;;12.80;6.72;;;12.20;87.20;;;;;;5027115;28;20052;-85
2021/05/13 07:03:20;;;;;;;12.45;5.88;;;12.30;87.60;;;;;;5033618;28;20099;-85
2021/05/13 07:05:47;;;;;;;11.95;6.28;;;12.50;87.40;;;;;;5036861;28;20045;-85
2021/05/13 07:08:13;;;;;;;13.57;7.40;;;12.60;86.40;;;;;;5046466;28;20099;-87
2021/05/13 07:10:40;;;;;;;12.82;6.70;;;12.70;87.10;;;;;;5033721;28;20092;-88
2021/05/13 07:13:06;;;;;;;8.57;4.70;;;12.80;87.30;;;;;;5034102;28;20081;-84
2021/05/13 07:15:32;;;;;;;11.18;5.68;;;12.90;86.50;;;;;;5027012;28;20084;-85
2021/05/13 07:17:58;;;;;;;10.88;5.88;;;13.00;85.30;;;;;;5033175;28;20055;-87
2021/05/13 07:20:24;;;;;;;10.38;6.60;;;13.20;84.70;;;;;;5037416;28;20045;-86
2021/05/13 07:22:52;;;;;;;14.50;7.20;;;13.30;83.70;;;;;;5017961;28;20042;-84
2021/05/13 07:25:21;;;;;;;11.55;6.28;;;13.40;84.00;;;;;;5053530;28;20076;-85
2021/05/13 07:27:47;;;;;;;16.63;7.53;;;13.40;83.70;;;;;;5049655;28;20056;-85
2021/05/13 07:30:14;;;;;;;12.25;6.40;;;13.40;83.90;;;;;;5042454;28;20064;-86
2021/05/13 07:32:40;;;;;;;13.30;6.05;;;13.60;84.50;;;;;;5058080;28;20056;-89
2021/05/13 07:35:07;;;;;;;12.40;6.85;;;13.80;83.90;;;;;;5031069;28;20052;-85
2021/05/13 07:37:32;;;;;;;14.57;7.90;;;13.90;81.30;;;;;;5048066;28;20052;-87
2021/05/13 07:39:58;;;;;;;16.42;7.18;;;13.90;82.10;;;;;;5045021;28;20055;-88
2021/05/13 07:42:25;;;;;;;13.55;6.68;;;14.00;81.80;;;;;;5046903;28;20408;-86
2021/05/13 07:44:54;;;;;;;12.75;5.82;;;14.10;81.60;;;;;;5035624;28;20046;-91
2021/05/13 07:47:22;;;;;;;11.38;5.72;;;14.10;81.40;;;;;;5023704;28;20061;-92
2021/05/13 07:49:48;;;;;;;11.63;5.68;;;14.30;80.30;;;;;;5057467;28;20492;-94
2021/05/13 07:52:13;;;;;;;11.60;5.28;;;14.30;80.00;;;;;;5043248;28;20098;-91
2021/05/13 07:54:39;;;;;;;12.00;5.35;;;14.40;77.50;;;;;;5037709;28;20103;-91
2021/05/13 07:57:07;;;;;;;13.82;5.78;;;14.50;79.10;;;;;;5033714;28;20072;-94
2021/05/13 07:59:34;;;;;;;10.10;4.90;;;14.60;79.00;;;;;;5009634;28;20049;-92
2021/05/13 08:02:01;;;;;;;11.68;4.80;;;14.60;76.50;;;;;;5020761;28;20041;-93
2021/05/13 08:04:28;;;;;;;9.05;4.95;;;14.40;77.00;;;;;;5050804;28;20117;-92
2021/05/13 08:06:54;;;;;;;10.48;4.47;;;14.50;76.60;;;;;;5041310;28;20045;-93
2021/05/13 08:09:20;;;;;;;8.02;3.78;;;14.50;76.60;;;;;;5038292;28;20045;-94
2021/05/13 08:11:46;;;;;;;10.52;4.10;;;14.50;76.60;;;;;;5036886;28;20049;-92
2021/05/13 08:14:11;;;;;;;7.10;4.07;;;14.60;75.30;;;;;;5053863;28;20382;-92
2021/05/13 08:16:40;;;;;;;7.28;3.50;;;14.70;75.60;;;;;;5041335;28;20483;-90
2021/05/13 08:19:08;;;;;;;10.27;3.90;;;14.80;74.50;;;;;;5045327;28;20045;-89
2021/05/13 08:21:35;;;;;;;10.85;4.07;;;14.80;72.80;;;;;;5033811;28;20750;-90
2021/05/13 08:24:01;;;;;;;8.52;4.10;;;14.90;75.30;;;;;;5022917;28;20060;-89
2021/05/13 08:26:28;;;;;;;8.73;4.70;;;14.90;74.00;;;;;;5038082;28;20060;-87
2021/05/13 08:28:55;;;;;;;8.25;3.83;;;15.10;72.20;;;;;;5066734;28;20049;-88
2021/05/13 08:31:21;;;;;;;9.90;4.10;;;14.90;73.80;;;;;;5016739;28;20452;-85
2021/05/13 08:33:47;;;;;;;10.27;4.10;;;14.90;74.80;;;;;;5052487;28;20045;-90
2021/05/13 08:36:15;;;;;;;9.73;3.50;;;15.00;74.20;;;;;;5046995;28;20053;-90
2021/05/13 08:38:41;;;;;;;8.13;3.05;;;15.20;74.40;;;;;;5047638;28;20532;-91
2021/05/13 08:41:09;;;;;;;9.80;3.20;;;15.50;73.60;;;;;;5044193;28;20716;-89
2021/05/13 08:43:35;;;;;;;7.95;2.90;;;15.50;72.20;;;;;;5039045;28;20062;-88
2021/05/13 08:46:01;;;;;;;6.53;2.92;;;15.80;71.10;;;;;;5034888;28;20570;-90
2021/05/13 08:48:28;;;;;;;8.95;3.28;;;15.90;69.40;;;;;;5048130;28;20049;-89
2021/05/13 08:51:01;;;;;;;9.00;2.90;;;15.90;69.80;;;;;;5044285;28;20045;-89
2021/05/13 08:53:30;;;;;;;5.97;2.67;;;16.00;69.20;;;;;;5047767;28;20548;-90
2021/05/13 08:55:56;;;;;;;8.27;3.35;;;16.10;68.50;;;;;;5034035;28;20053;-91
2021/05/13 08:58:22;;;;;;;7.60;3.30;;;16.10;68.60;;;;;;5038448;28;20056;-89
2021/05/13 09:00:55;;;;;;;7.35;2.88;;;16.20;66.90;;;;;;5052700;28;20068;-91
2021/05/13 09:03:37;;;;;;;4.15;1.52;;;16.10;67.20;;;;;;5044462;28;20049;-90
2021/05/13 09:06:05;;;;;;;5.90;1.83;;;16.10;65.30;;;;;;5047934;28;20086;-90
2021/05/13 09:08:31;;;;;;;4.50;1.73;;;16.20;65.30;;;;;;5044404;28;20069;-91
2021/05/13 09:11:14;;;;;;;4.13;1.30;;;16.30;65.10;;;;;;5031229;28;20076;-89
2021/05/13 09:13:40;;;;;;;5.03;2.00;;;16.40;59.80;;;;;;5030580;28;20400;-92
2021/05/13 09:16:35;;;;;;;4.75;2.00;;;16.30;63.60;;;;;;5044401;28;20049;-90
2021/05/13 09:19:24;;;;;;;5.72;2.40;;;16.40;65.90;;;;;;5058347;28;20045;-89
2021/05/13 09:22:10;;;;;;;4.15;2.03;;;16.60;65.10;;;;;;5035003;28;20408;-88
2021/05/13 09:24:47;;;;;;;4.07;1.92;;;16.70;63.40;;;;;;5033244;28;20120;-87
2021/05/13 09:27:21;;;;;;;3.75;2.20;;;17.10;64.20;;;;;;5034631;28;20056;-91
2021/05/13 09:30:00;;;;;;;6.32;2.42;;;17.10;63.30;;;;;;5039955;28;20044;-89
2021/05/13 09:32:28;;;;;;;6.28;2.40;;;17.20;63.50;;;;;;5049953;28;20075;-90
2021/05/13 09:34:53;;;;;;;4.43;1.80;;;17.20;63.40;;;;;;5029179;28;20042;-89
2021/05/13 09:37:19;;;;;;;4.28;1.67;;;17.30;63.60;;;;;;5058811;28;20398;-90
2021/05/13 09:39:48;;;;;;;3.75;1.70;;;17.50;59.40;;;;;;5034358;28;20095;-92
2021/05/13 09:42:18;;;;;;;3.55;1.40;;;17.40;60.60;;;;;;5035390;28;20071;-90
2021/05/13 09:44:46;;;;;;;5.13;1.63;;;17.40;61.20;;;;;;5033632;28;20054;-90
2021/05/13 09:47:14;;;;;;;2.47;1.10;;;17.50;60.80;;;;;;5040024;28;20057;-92
2021/05/13 09:50:05;;;;;;;4.25;1.42;;;17.60;57.70;;;;;;5043880;28;20045;-89
2021/05/13 09:52:41;;;;;;;2.50;1.10;;;17.50;58.20;;;;;;5048879;28;20489;-91
2021/05/13 09:55:32;;;;;;;3.20;1.33;;;17.50;58.80;;;;;;5046578;28;20049;-90
2021/05/13 09:58:09;;;;;;;2.75;1.30;;;17.40;60.30;;;;;;4995018;28;20101;-91
2021/05/13 10:00:45;;;;;;;4.28;1.80;;;17.60;60.10;;;;;;4994539;28;20054;-90
2021/05/13 10:03:19;;;;;;;6.30;2.35;;;17.70;59.50;;;;;;4974567;28;20050;-92
2021/05/13 10:05:48;;;;;;;4.65;2.78;;;17.70;60.40;;;;;;4981474;28;20626;-91
2021/05/13 10:08:15;;;;;;;5.78;2.38;;;17.70;61.50;;;;;;4960602;28;20113;-89
2021/05/13 10:10:42;;;;;;;3.47;2.53;;;17.90;61.70;;;;;;4962453;28;20491;-92
2021/05/13 10:13:08;;;;;;;5.30;2.38;;;18.00;62.10;;;;;;4967251;28;20118;-91
2021/05/13 10:15:40;;;;;;;3.45;2.17;;;18.10;60.20;;;;;;4949727;28;20082;-90
2021/05/13 10:18:28;;;;;;;4.95;2.20;;;18.10;58.90;;;;;;4958318;28;20047;-89
2021/05/13 10:21:05;;;;;;;5.60;1.83;;;18.00;60.40;;;;;;4923062;28;20070;-90
2021/05/13 10:23:33;;;;;;;5.30;2.60;;;17.90;57.60;;;;;;4949933;28;20062;-93
2021/05/13 10:25:58;;;;;;;4.43;2.00;;;17.80;59.00;;;;;;4960826;28;20090;-95
2021/05/13 10:28:32;;;;;;;4.13;1.60;;;17.90;60.60;;;;;;4950134;28;20092;-94
2021/05/13 10:31:04;;;;;;;4.80;1.70;;;18.10;59.60;;;;;;4938119;28;20066;-92
2021/05/13 10:33:51;;;;;;;4.22;1.85;;;18.20;57.90;;;;;;4955443;28;20063;-93
2021/05/13 10:36:19;;;;;;;4.10;1.90;;;18.10;56.70;;;;;;4997129;28;20478;-92
2021/05/13 10:38:50;;;;;;;4.93;1.73;;;18.10;57.70;;;;;;5011392;28;20082;-90
2021/05/13 10:41:29;;;;;;;5.13;2.45;;;18.30;59.20;;;;;;5006340;28;20437;-93
2021/05/13 10:44:21;;;;;;;5.03;2.17;;;18.50;58.80;;;;;;5004446;28;20049;-94
2021/05/13 10:46:56;;;;;;;5.95;2.20;;;18.50;57.50;;;;;;4979443;28;20112;-89
2021/05/13 10:49:24;;;;;;;3.83;1.73;;;18.70;57.40;;;;;;5006209;28;20428;-90
2021/05/13 10:51:52;;;;;;;5.10;2.00;;;18.70;57.10;;;;;;4998619;28;20413;-92
2021/05/13 10:54:27;;;;;;;4.68;2.00;;;18.70;57.90;;;;;;5006177;28;20481;-91
2021/05/13 10:57:11;;;;;;;3.70;1.80;;;18.60;54.20;;;;;;4996277;28;20046;-92
2021/05/13 10:59:37;;;;;;;5.47;2.30;;;18.20;57.20;;;;;;4994291;28;20046;-90
2021/05/13 11:02:03;;;;;;;4.05;2.15;;;18.20;57.70;;;;;;4977420;28;20051;-90
2021/05/13 11:04:29;;;;;;;4.55;2.35;;;18.10;58.60;;;;;;4988125;28;20050;-90
2021/05/13 11:07:03;;;;;;;4.93;1.60;;;18.20;58.30;;;;;;5033795;28;20547;-91
2021/05/13 11:09:38;;;;;;;2.88;2.15;;;18.30;56.10;;;;;;5037582;28;20045;-91
2021/05/13 11:12:22;;;;;;;5.28;2.40;;;18.40;54.30;;;;;;5032940;28;20053;-91
2021/05/13 11:17:43;;;;;;;3.47;2.40;;;18.20;56.30;;;;;;5039945;28;20056;-90
2021/05/13 11:20:29;;;;;;;12.40;9.10;;;18.30;57.10;;;;;;5030172;28;20053;-85
2021/05/13 11:22:57;;;;;;;4.00;2.30;;;18.30;55.60;;;;;;5023851;28;20124;-86
2021/05/13 11:25:24;;;;;;;4.70;2.50;;;18.20;56.70;;;;;;5048455;28;20444;-86
2021/05/13 11:27:51;;;;;;;5.50;3.83;;;18.10;57.70;;;;;;5047059;28;20041;-86
2021/05/13 11:30:24;;;;;;;4.05;3.08;;;18.20;57.20;;;;;;5061097;28;20508;-86
2021/05/13 11:32:51;;;;;;;6.28;3.88;;;18.30;57.80;;;;;;5044264;28;20520;-85
2021/05/13 11:35:20;;;;;;;6.28;3.75;;;18.30;59.20;;;;;;5035590;28;20119;-85
2021/05/13 11:37:50;;;;;;;4.55;2.90;;;18.30;57.90;;;;;;5026574;28;20037;-86
2021/05/13 11:40:34;;;;;;;5.03;2.95;;;18.50;57.40;;;;;;5030609;28;20084;-85
2021/05/13 11:43:41;;;;;;;6.43;3.03;;;18.70;57.60;;;;;;5040634;28;20049;-86
2021/05/13 11:46:09;;;;;;;4.60;3.70;;;18.80;57.10;;;;;;4967910;28;20450;-85
2021/05/13 11:48:42;;;;;;;4.57;3.15;;;18.80;57.00;;;;;;5039496;28;20059;-86
2021/05/13 11:51:14;;;;;;;5.05;2.85;;;19.00;56.10;;;;;;5065580;28;20053;-87
2021/05/13 11:53:42;;;;;;;5.45;2.90;;;19.10;55.40;;;;;;5042703;28;20087;-87
2021/05/13 11:56:09;;;;;;;3.85;2.58;;;19.10;55.30;;;;;;5046052;28;20183;-87
2021/05/13 11:58:45;;;;;;;4.68;2.90;;;19.10;56.90;;;;;;5038326;28;20052;-88
2021/05/13 12:01:18;;;;;;;6.20;2.90;;;19.20;58.20;;;;;;5026765;28;20053;-86
2021/05/13 12:03:46;;;;;;;3.65;2.88;;;19.40;55.20;;;;;;5027648;28;20050;-87
2021/05/13 12:06:12;;;;;;;3.97;2.30;;;19.00;56.40;;;;;;5031856;28;20049;-86
2021/05/13 12:08:38;;;;;;;4.70;2.40;;;19.10;56.50;;;;;;5036753;28;20049;-87
2021/05/13 12:11:19;;;;;;;3.95;1.95;;;19.20;56.70;;;;;;5030224;28;20065;-87
2021/05/13 12:13:46;;;;;;;4.57;3.10;;;19.20;55.50;;;;;;5042860;28;20052;-88
2021/05/13 12:16:13;;;;;;;3.47;2.00;;;19.30;54.40;;;;;;5030915;28;20052;-87
2021/05/13 12:18:42;;;;;;;5.32;2.22;;;19.30;55.70;;;;;;5022043;28;20129;-86
2021/05/13 12:21:09;;;;;;;2.75;1.85;;;19.40;55.40;;;;;;5016611;28;20042;-86
2021/05/13 12:23:39;;;;;;;3.60;2.00;;;19.30;54.40;;;;;;5028401;28;20478;-89
2021/05/13 12:26:05;;;;;;;3.35;1.63;;;19.20;54.50;;;;;;5039817;28;20071;-87
2021/05/13 12:28:31;;;;;;;4.20;1.83;;;19.00;55.20;;;;;;5041903;28;20451;-89
2021/05/13 12:30:57;;;;;;;4.47;2.00;;;19.00;57.10;;;;;;5027047;28;20044;-85
2021/05/13 12:33:24;;;;;;;3.95;2.13;;;19.00;56.60;;;;;;5038731;28;20120;-86
2021/05/13 12:35:51;;;;;;;3.33;1.80;;;19.10;56.90;;;;;;5039309;28;20409;-86
2021/05/13 12:38:22;;;;;;;4.30;2.30;;;19.20;56.00;;;;;;5062198;28;20124;-86
2021/05/13 12:41:10;;;;;;;4.18;1.75;;;19.50;52.70;;;;;;5052843;28;20366;-86
2021/05/13 12:43:37;;;;;;;3.45;1.90;;;19.20;54.10;;;;;;5025077;28;20056;-86
2021/05/13 12:46:25;;;;;;;3.20;1.60;;;19.20;52.80;;;;;;5052908;28;20044;-85
2021/05/13 12:48:52;;;;;;;2.85;2.17;;;19.10;54.60;;;;;;5028871;28;20058;-85
2021/05/13 12:51:22;;;;;;;4.43;2.08;;;19.00;54.70;;;;;;5012957;28;20049;-86
2021/05/13 12:53:54;;;;;;;3.80;2.00;;;19.00;56.00;;;;;;5040263;28;20384;-85
2021/05/13 12:56:31;;;;;;;3.13;1.52;;;19.20;54.90;;;;;;5052591;28;20542;-85
2021/05/13 12:59:07;;;;;;;3.97;2.10;;;19.20;54.20;;;;;;5039715;28;20061;-85
2021/05/13 13:01:35;;;;;;;4.15;1.80;;;19.30;54.80;;;;;;5052089;28;20060;-86
2021/05/13 13:04:02;;;;;;;3.63;1.70;;;19.40;54.10;;;;;;5053364;28;20048;-86